Time;durP1;ratioP1;P1;durP2;ratioP2;P2;SDS_P1;SDS_P2;PMS_P1;PMS_P2;Temp;Humidity;BMP_temperature;BMP_pressure;BME280_temperature;BME280_humidity;BME280_pressure;Samples;Min_cycle;Max_cycle;Signal;HPM_P1;HPM_P2
2022/07/22 00:01:14;;;;;;;43.30;24.27;;;;;;;;;;5075730;28;20097;-76
2022/07/22 00:03:40;;;;;;;36.80;23.45;;;;;;;;;;5074905;28;20025;-77
2022/07/22 00:06:07;;;;;;;37.70;22.15;;;;;;;;;;5056038;28;20036;-77
2022/07/22 00:08:32;;;;;;;41.25;23.05;;;;;;;;;;5052350;28;20027;-78
2022/07/22 00:10:58;;;;;;;39.38;23.55;;;;;;;;;;5052300;28;20029;-76
2022/07/22 00:13:24;;;;;;;39.10;23.02;;;;;;;;;;5052729;28;20090;-76
2022/07/22 00:15:50;;;;;;;38.08;22.48;;;;;;;;;;5052967;28;20033;-76
2022/07/22 00:18:16;;;;;;;37.15;21.15;;;;;;;;;;5050825;28;20029;-76
2022/07/22 00:20:42;;;;;;;37.90;20.20;;;;;;;;;;5053246;28;20036;-76
2022/07/22 00:23:08;;;;;;;34.30;19.35;;;;;;;;;;5053029;28;20393;-76
2022/07/22 00:25:34;;;;;;;36.10;18.52;;;;;;;;;;5076670;28;20048;-75
2022/07/22 00:28:00;;;;;;;29.42;17.08;;;;;;;;;;5079513;28;20036;-74
2022/07/22 00:30:26;;;;;;;28.02;15.10;;;;;;;;;;5080627;28;20062;-75
2022/07/22 00:32:52;;;;;;;19.63;11.77;;;;;;;;;;5080118;28;20019;-74
2022/07/22 00:35:18;;;;;;;28.88;11.30;;;;;;;;;;5077693;28;20029;-75
2022/07/22 00:37:44;;;;;;;19.02;8.25;;;;;;;;;;5060381;28;20036;-76
2022/07/22 00:40:10;;;;;;;12.77;8.15;;;;;;;;;;5054839;28;20021;-76
2022/07/22 00:42:36;;;;;;;19.08;6.93;;;;;;;;;;5055490;28;20024;-76
2022/07/22 00:45:03;;;;;;;15.75;6.65;;;;;;;;;;5055848;28;20032;-77
2022/07/22 00:47:29;;;;;;;11.20;5.07;;;;;;;;;;5055509;28;20083;-76
2022/07/22 00:49:54;;;;;;;5.80;3.20;;;;;;;;;;5057571;28;20442;-76
2022/07/22 00:52:21;;;;;;;5.68;2.42;;;;;;;;;;5057006;28;20367;-77
2022/07/22 00:54:47;;;;;;;6.38;2.45;;;;;;;;;;5078376;28;20013;-75
2022/07/22 00:57:13;;;;;;;7.53;2.90;;;;;;;;;;5067110;28;20037;-76
2022/07/22 00:59:40;;;;;;;5.10;2.53;;;;;;;;;;5055394;28;20036;-76
2022/07/22 01:02:06;;;;;;;9.38;2.75;;;;;;;;;;5054787;28;20032;-76
2022/07/22 01:04:32;;;;;;;5.53;2.65;;;;;;;;;;5055290;28;20047;-76
2022/07/22 01:06:58;;;;;;;8.57;2.50;;;;;;;;;;5054591;28;20096;-77
2022/07/22 01:09:24;;;;;;;9.30;2.38;;;;;;;;;;5055052;28;20129;-76
2022/07/22 01:11:50;;;;;;;6.75;1.95;;;;;;;;;;5054804;28;20139;-76
2022/07/22 01:14:16;;;;;;;9.45;2.65;;;;;;;;;;5055071;28;20387;-76
2022/07/22 01:16:42;;;;;;;11.15;2.78;;;;;;;;;;5055976;28;20031;-76
2022/07/22 01:19:07;;;;;;;11.52;3.25;;;;;;;;;;5055346;28;20387;-76
2022/07/22 01:21:34;;;;;;;8.15;3.10;;;;;;;;;;5056517;28;20398;-76
2022/07/22 01:23:59;;;;;;;10.40;2.80;;;;;;;;;;5058385;28;20083;-76
2022/07/22 01:26:25;;;;;;;9.23;3.00;;;;;;;;;;5058782;28;20025;-76
2022/07/22 01:28:51;;;;;;;10.52;3.45;;;;;;;;;;5056282;28;20021;-76
2022/07/22 01:31:17;;;;;;;9.40;3.85;;;;;;;;;;5054890;28;20037;-76
2022/07/22 01:33:43;;;;;;;15.95;4.45;;;;;;;;;;5055458;28;20093;-76
2022/07/22 01:36:09;;;;;;;15.55;4.38;;;;;;;;;;5056411;28;20390;-76
2022/07/22 01:38:35;;;;;;;13.55;3.75;;;;;;;;;;5053707;28;20025;-76
2022/07/22 01:41:01;;;;;;;15.20;4.53;;;;;;;;;;5054112;28;20091;-76
2022/07/22 01:43:27;;;;;;;12.65;4.63;;;;;;;;;;5054602;28;20410;-76
2022/07/22 01:45:53;;;;;;;20.88;6.85;;;;;;;;;;5053913;28;20028;-76
2022/07/22 01:48:19;;;;;;;21.67;6.22;;;;;;;;;;5054221;28;20028;-75
2022/07/22 01:50:45;;;;;;;21.75;7.32;;;;;;;;;;5054720;28;20029;-76
2022/07/22 01:53:11;;;;;;;19.38;5.88;;;;;;;;;;5053898;28;20036;-75
2022/07/22 01:55:38;;;;;;;20.05;7.03;;;;;;;;;;5052769;28;20035;-76
2022/07/22 01:58:04;;;;;;;18.20;6.18;;;;;;;;;;5055098;28;20033;-76
2022/07/22 02:00:30;;;;;;;23.00;5.95;;;;;;;;;;5055392;28;20025;-76
2022/07/22 02:02:56;;;;;;;17.02;5.57;;;;;;;;;;5054787;28;20028;-76
2022/07/22 02:05:22;;;;;;;23.45;6.80;;;;;;;;;;5070624;28;20026;-74
2022/07/22 02:07:48;;;;;;;13.75;5.15;;;;;;;;;;5068313;28;20033;-76
2022/07/22 02:10:14;;;;;;;18.77;5.47;;;;;;;;;;5066500;28;20051;-76
2022/07/22 02:12:40;;;;;;;22.40;4.68;;;;;;;;;;5070944;28;20029;-76
2022/07/22 02:15:08;;;;;;;17.02;4.78;;;;;;;;;;5066077;28;20033;-76
2022/07/22 02:17:34;;;;;;;19.63;4.25;;;;;;;;;;5071750;28;20025;-77
2022/07/22 02:20:00;;;;;;;19.60;4.15;;;;;;;;;;5073175;28;20067;-75
2022/07/22 02:22:26;;;;;;;13.45;3.90;;;;;;;;;;5076809;28;20041;-75
2022/07/22 02:24:52;;;;;;;15.07;3.67;;;;;;;;;;5070662;28;20029;-75
2022/07/22 02:27:18;;;;;;;16.05;3.85;;;;;;;;;;5069096;28;20031;-75
2022/07/22 02:29:44;;;;;;;11.43;3.50;;;;;;;;;;5064293;28;20025;-75
2022/07/22 02:32:10;;;;;;;19.27;3.80;;;;;;;;;;5054414;28;20029;-75
2022/07/22 02:34:36;;;;;;;18.60;4.05;;;;;;;;;;5056129;28;20416;-76
2022/07/22 02:37:02;;;;;;;19.10;3.85;;;;;;;;;;5051331;28;20033;-76
2022/07/22 02:39:28;;;;;;;14.60;3.20;;;;;;;;;;5055102;28;20021;-74
2022/07/22 02:41:54;;;;;;;14.93;3.33;;;;;;;;;;5052514;28;20116;-75
2022/07/22 02:44:20;;;;;;;13.38;3.13;;;;;;;;;;5054364;28;20438;-76
2022/07/22 02:46:46;;;;;;;14.30;3.20;;;;;;;;;;5054635;28;20021;-75
2022/07/22 02:49:12;;;;;;;17.13;3.50;;;;;;;;;;5058236;28;20017;-75
2022/07/22 02:51:38;;;;;;;18.00;3.50;;;;;;;;;;5059362;28;20036;-75
2022/07/22 02:54:04;;;;;;;20.48;3.22;;;;;;;;;;5059226;28;20029;-75
2022/07/22 02:56:30;;;;;;;19.35;3.80;;;;;;;;;;5069908;28;20013;-74
2022/07/22 02:58:56;;;;;;;12.23;2.63;;;;;;;;;;5076093;28;20044;-74
2022/07/22 03:01:22;;;;;;;21.70;3.33;;;;;;;;;;5076020;28;20084;-73
2022/07/22 03:03:48;;;;;;;18.25;3.55;;;;;;;;;;5076507;28;20043;-74
2022/07/22 03:06:14;;;;;;;16.02;3.15;;;;;;;;;;5076580;28;20041;-74
2022/07/22 03:08:40;;;;;;;15.25;2.65;;;;;;;;;;5053966;28;20393;-75
2022/07/22 03:11:07;;;;;;;15.27;2.95;;;;;;;;;;5052595;28;20025;-75
2022/07/22 03:13:33;;;;;;;14.52;2.88;;;;;;;;;;5053355;28;20488;-75
2022/07/22 03:15:59;;;;;;;14.80;2.60;;;;;;;;;;5051759;28;20350;-75
2022/07/22 03:18:25;;;;;;;13.93;2.90;;;;;;;;;;5051301;28;20025;-75
2022/07/22 03:20:51;;;;;;;14.82;2.65;;;;;;;;;;5052243;28;20036;-75
2022/07/22 03:23:17;;;;;;;20.33;3.20;;;;;;;;;;5052601;28;20029;-75
2022/07/22 03:25:43;;;;;;;13.02;3.00;;;;;;;;;;5051517;28;20064;-76
2022/07/22 03:28:09;;;;;;;16.70;3.08;;;;;;;;;;5052900;28;20111;-75
2022/07/22 03:30:35;;;;;;;17.05;2.90;;;;;;;;;;5053484;28;20070;-76
2022/07/22 03:33:01;;;;;;;14.80;3.28;;;;;;;;;;5056624;28;20025;-76
2022/07/22 03:35:26;;;;;;;15.23;2.75;;;;;;;;;;5057894;28;20029;-76
2022/07/22 03:37:53;;;;;;;25.05;3.25;;;;;;;;;;5056511;28;20041;-76
2022/07/22 03:40:19;;;;;;;14.77;3.20;;;;;;;;;;5056809;28;20367;-76
2022/07/22 03:42:45;;;;;;;17.08;2.72;;;;;;;;;;5057618;28;20025;-76
2022/07/22 03:45:11;;;;;;;13.52;3.33;;;;;;;;;;5055796;28;20018;-76
2022/07/22 03:47:37;;;;;;;15.70;3.25;;;;;;;;;;5054672;28;20044;-76
2022/07/22 03:50:03;;;;;;;14.63;3.10;;;;;;;;;;5056944;28;20025;-76
2022/07/22 03:52:29;;;;;;;13.95;2.78;;;;;;;;;;5054850;28;20394;-76
2022/07/22 03:54:55;;;;;;;11.40;3.20;;;;;;;;;;5051125;28;20371;-76
2022/07/22 03:57:21;;;;;;;18.20;3.30;;;;;;;;;;5051821;28;20051;-76
2022/07/22 03:59:48;;;;;;;12.95;3.28;;;;;;;;;;5051991;28;20032;-75
2022/07/22 04:02:14;;;;;;;15.70;3.30;;;;;;;;;;5053521;28;20029;-76
2022/07/22 04:04:40;;;;;;;16.00;2.95;;;;;;;;;;5057762;28;20028;-75
2022/07/22 04:07:06;;;;;;;19.50;3.80;;;;;;;;;;5057072;28;20025;-75
2022/07/22 04:09:32;;;;;;;12.30;3.22;;;;;;;;;;5056683;28;20467;-75
2022/07/22 04:11:58;;;;;;;20.38;3.55;;;;;;;;;;5055358;28;20496;-75
2022/07/22 04:14:24;;;;;;;19.08;3.08;;;;;;;;;;5059232;28;20112;-77
2022/07/22 04:16:50;;;;;;;14.85;3.17;;;;;;;;;;5055987;28;20039;-75
2022/07/22 04:19:16;;;;;;;17.05;3.47;;;;;;;;;;5057236;28;20474;-76
2022/07/22 04:21:42;;;;;;;14.55;3.10;;;;;;;;;;5056875;28;20033;-76
2022/07/22 04:24:09;;;;;;;17.70;4.07;;;;;;;;;;5056437;28;20017;-76
2022/07/22 04:26:36;;;;;;;21.80;3.20;;;;;;;;;;5057754;28;20051;-77
2022/07/22 04:29:02;;;;;;;16.55;3.45;;;;;;;;;;5079163;28;20029;-74
2022/07/22 04:31:28;;;;;;;21.08;3.47;;;;;;;;;;5067578;28;20029;-78
2022/07/22 04:33:54;;;;;;;16.27;3.70;;;;;;;;;;5058078;28;20040;-78
2022/07/22 04:36:20;;;;;;;17.70;3.15;;;;;;;;;;5063584;28;20075;-76
2022/07/22 04:38:46;;;;;;;17.30;3.35;;;;;;;;;;5063764;28;20490;-78
2022/07/22 04:41:12;;;;;;;16.42;3.78;;;;;;;;;;5056112;28;20521;-78
2022/07/22 04:43:37;;;;;;;17.50;3.08;;;;;;;;;;5055630;28;20029;-77
2022/07/22 04:46:03;;;;;;;11.15;3.05;;;;;;;;;;5056292;28;20029;-78
2022/07/22 04:48:29;;;;;;;12.93;3.03;;;;;;;;;;5056739;28;20057;-77
2022/07/22 04:50:59;;;;;;;8.98;2.50;;;;;;;;;;5057128;28;20101;-76
2022/07/22 04:53:25;;;;;;;8.90;2.60;;;;;;;;;;5055786;28;20049;-77
2022/07/22 04:55:51;;;;;;;12.73;2.65;;;;;;;;;;5055184;28;20538;-77
2022/07/22 04:58:17;;;;;;;12.63;2.88;;;;;;;;;;5055204;28;20477;-77
2022/07/22 05:00:43;;;;;;;22.10;10.05;;;;;;;;;;5055059;28;20478;-78
2022/07/22 05:03:09;;;;;;;16.15;3.03;;;;;;;;;;5054386;28;20025;-78
2022/07/22 05:05:35;;;;;;;12.23;3.25;;;;;;;;;;5055289;28;20077;-78
2022/07/22 05:08:01;;;;;;;17.23;3.08;;;;;;;;;;5057218;28;20045;-78
2022/07/22 05:10:27;;;;;;;15.43;3.20;;;;;;;;;;5058210;28;20025;-77
2022/07/22 05:12:53;;;;;;;17.27;3.45;;;;;;;;;;5058588;28;20029;-76
2022/07/22 05:15:19;;;;;;;25.30;4.70;;;;;;;;;;5056671;28;20060;-78
2022/07/22 05:17:45;;;;;;;23.98;5.50;;;;;;;;;;5061350;28;20025;-78
2022/07/22 05:20:12;;;;;;;23.40;3.92;;;;;;;;;;5060874;28;20114;-77
2022/07/22 05:22:37;;;;;;;25.08;4.53;;;;;;;;;;5058377;28;20051;-77
2022/07/22 05:25:04;;;;;;;24.85;4.25;;;;;;;;;;5060057;28;20534;-77
2022/07/22 05:27:30;;;;;;;19.38;3.72;;;;;;;;;;5062605;28;20119;-75
2022/07/22 05:29:57;;;;;;;27.15;4.20;;;;;;;;;;5068844;28;20039;-76
2022/07/22 05:32:23;;;;;;;24.65;7.55;;;;;;;;;;5076823;28;20036;-75
2022/07/22 05:34:48;;;;;;;18.52;3.85;;;;;;;;;;5079050;28;20069;-75
2022/07/22 05:37:15;;;;;;;23.23;4.07;;;;;;;;;;5078938;28;20024;-76
2022/07/22 05:39:42;;;;;;;27.23;5.80;;;;;;;;;;5066437;28;20078;-78
2022/07/22 05:42:08;;;;;;;18.83;3.88;;;;;;;;;;5057604;28;20080;-76
2022/07/22 05:44:33;;;;;;;22.05;4.03;;;;;;;;;;5057276;28;20126;-76
2022/07/22 05:46:59;;;;;;;17.65;4.50;;;;;;;;;;5058413;28;20035;-77
2022/07/22 05:49:26;;;;;;;23.42;4.45;;;;;;;;;;5055576;28;20036;-76
2022/07/22 05:51:52;;;;;;;17.27;3.53;;;;;;;;;;5056965;28;20032;-76
2022/07/22 05:54:18;;;;;;;20.83;4.60;;;;;;;;;;5057605;28;20033;-76
2022/07/22 05:56:44;;;;;;;27.33;4.22;;;;;;;;;;5058564;28;20036;-77
2022/07/22 05:59:10;;;;;;;12.55;3.42;;;;;;;;;;5057774;28;20509;-75
2022/07/22 06:01:36;;;;;;;21.50;4.13;;;;;;;;;;5060262;28;20025;-76
2022/07/22 06:04:02;;;;;;;25.50;3.50;;;;;;;;;;5056888;28;20044;-76
2022/07/22 06:06:28;;;;;;;26.23;4.22;;;;;;;;;;5056920;28;20518;-76
2022/07/22 06:08:54;;;;;;;18.17;3.70;;;;;;;;;;5057781;28;20060;-76
2022/07/22 06:11:20;;;;;;;26.88;4.22;;;;;;;;;;5059651;28;20036;-77
2022/07/22 06:13:46;;;;;;;19.58;4.55;;;;;;;;;;5054619;28;20029;-76
2022/07/22 06:16:12;;;;;;;23.73;5.55;;;;;;;;;;5055435;28;20028;-76
2022/07/22 06:18:38;;;;;;;20.88;4.32;;;;;;;;;;5057500;28;20029;-77
2022/07/22 06:21:05;;;;;;;24.00;4.43;;;;;;;;;;5060327;28;20067;-77
2022/07/22 06:23:31;;;;;;;26.88;5.18;;;;;;;;;;5055452;28;20051;-78
2022/07/22 06:25:56;;;;;;;19.45;4.18;;;;;;;;;;5054321;28;20072;-78
2022/07/22 06:28:22;;;;;;;26.77;4.72;;;;;;;;;;5055161;28;20433;-75
2022/07/22 06:30:48;;;;;;;21.48;4.43;;;;;;;;;;5054823;28;20470;-76
2022/07/22 06:33:14;;;;;;;22.02;4.40;;;;;;;;;;5057324;28;20033;-76
2022/07/22 06:35:41;;;;;;;17.85;4.78;;;;;;;;;;5055578;28;20367;-77
2022/07/22 06:38:07;;;;;;;25.25;4.30;;;;;;;;;;5055523;28;20474;-77
2022/07/22 06:40:36;;;;;;;21.25;4.15;;;;;;;;;;5056611;28;20098;-77
2022/07/22 06:43:02;;;;;;;18.13;4.07;;;;;;;;;;5055778;28;20052;-77
2022/07/22 06:45:28;;;;;;;25.27;5.63;;;;;;;;;;5055189;28;20056;-76
2022/07/22 06:47:55;;;;;;;22.90;4.35;;;;;;;;;;5055792;28;20107;-77
2022/07/22 06:50:21;;;;;;;24.67;4.22;;;;;;;;;;5056166;28;20080;-78
2022/07/22 06:52:48;;;;;;;23.55;5.25;;;;;;;;;;5056204;28;20075;-76
2022/07/22 06:55:15;;;;;;;28.13;4.63;;;;;;;;;;5055171;28;20025;-77
2022/07/22 06:57:41;;;;;;;26.17;4.50;;;;;;;;;;5055286;28;20508;-76
2022/07/22 07:00:08;;;;;;;25.77;4.97;;;;;;;;;;5057195;28;20032;-77
2022/07/22 07:02:34;;;;;;;22.83;4.78;;;;;;;;;;5057689;28;20096;-78
2022/07/22 07:05:01;;;;;;;29.15;4.45;;;;;;;;;;5056687;28;20075;-76
2022/07/22 07:07:27;;;;;;;23.15;4.25;;;;;;;;;;5056762;28;20026;-77
2022/07/22 07:09:53;;;;;;;24.58;4.00;;;;;;;;;;5057803;28;20490;-78
2022/07/22 07:12:19;;;;;;;23.02;3.92;;;;;;;;;;5054504;28;20040;-76
2022/07/22 07:14:45;;;;;;;22.77;4.00;;;;;;;;;;5055901;28;20069;-79
2022/07/22 07:17:10;;;;;;;22.58;4.03;;;;;;;;;;5054875;28;20036;-76
2022/07/22 07:19:36;;;;;;;26.77;4.32;;;;;;;;;;5060466;28;20039;-75
2022/07/22 07:22:02;;;;;;;27.63;4.15;;;;;;;;;;5059003;28;20071;-76
2022/07/22 07:24:28;;;;;;;29.83;4.68;;;;;;;;;;5058923;28;20030;-77
2022/07/22 07:26:54;;;;;;;24.77;3.80;;;;;;;;;;5053534;28;20060;-77
2022/07/22 07:29:22;;;;;;;28.17;4.28;;;;;;;;;;5053599;28;20055;-77
2022/07/22 07:31:48;;;;;;;31.92;4.70;;;;;;;;;;5053499;28;20478;-76
2022/07/22 07:34:14;;;;;;;24.65;4.43;;;;;;;;;;5056065;28;20081;-76
2022/07/22 07:36:40;;;;;;;29.98;4.07;;;;;;;;;;5055902;28;20029;-76
2022/07/22 07:39:06;;;;;;;28.10;4.72;;;;;;;;;;5058552;28;20025;-76
2022/07/22 07:41:32;;;;;;;32.88;4.82;;;;;;;;;;5060395;28;20513;-77
2022/07/22 07:43:58;;;;;;;24.40;3.80;;;;;;;;;;5060742;28;20017;-75
2022/07/22 07:46:24;;;;;;;21.42;3.80;;;;;;;;;;5059243;28;20032;-76
2022/07/22 07:48:50;;;;;;;20.95;4.10;;;;;;;;;;5059449;28;20025;-77
2022/07/22 07:51:16;;;;;;;23.90;3.97;;;;;;;;;;5058169;28;20029;-77
2022/07/22 07:53:42;;;;;;;23.90;4.00;;;;;;;;;;5058444;28;20440;-77
2022/07/22 07:56:08;;;;;;;25.75;4.00;;;;;;;;;;5058718;28;20029;-76
2022/07/22 07:58:34;;;;;;;22.35;4.03;;;;;;;;;;5073081;28;20140;-75
2022/07/22 08:01:00;;;;;;;27.25;4.50;;;;;;;;;;5077715;28;20040;-75
2022/07/22 08:03:26;;;;;;;28.88;4.00;;;;;;;;;;5080233;28;20044;-75
2022/07/22 08:05:52;;;;;;;25.50;4.03;;;;;;;;;;5079316;28;20024;-76
2022/07/22 08:08:17;;;;;;;19.60;3.35;;;;;;;;;;5078543;28;20041;-75
2022/07/22 08:10:44;;;;;;;25.33;4.03;;;;;;;;;;5067330;28;20032;-77
2022/07/22 08:13:10;;;;;;;19.58;4.15;;;;;;;;;;5060700;28;20104;-76
2022/07/22 08:15:36;;;;;;;23.25;3.35;;;;;;;;;;5063313;28;20021;-77
2022/07/22 08:18:02;;;;;;;21.08;3.65;;;;;;;;;;5067578;28;20036;-77
2022/07/22 08:20:29;;;;;;;27.73;3.35;;;;;;;;;;5061423;28;20029;-76
2022/07/22 08:22:55;;;;;;;24.27;3.38;;;;;;;;;;5060675;28;20033;-76
2022/07/22 08:25:21;;;;;;;26.33;4.22;;;;;;;;;;5060324;28;20056;-77
2022/07/22 08:27:47;;;;;;;18.38;3.15;;;;;;;;;;5062804;28;20029;-77
2022/07/22 08:30:13;;;;;;;19.20;3.28;;;;;;;;;;5063722;28;20040;-75
2022/07/22 08:32:39;;;;;;;17.10;3.28;;;;;;;;;;5060800;28;20104;-77
2022/07/22 08:35:06;;;;;;;20.73;3.00;;;;;;;;;;5056803;28;20083;-76
2022/07/22 08:37:32;;;;;;;22.55;3.33;;;;;;;;;;5059202;28;20074;-76
2022/07/22 08:39:58;;;;;;;28.30;3.85;;;;;;;;;;5059261;28;20074;-76
2022/07/22 08:42:25;;;;;;;22.63;3.90;;;;;;;;;;5060487;28;20021;-76
2022/07/22 08:44:51;;;;;;;11.63;2.50;;;;;;;;;;5057683;28;20025;-76
2022/07/22 08:47:21;;;;;;;16.75;3.28;;;;;;;;;;5057467;28;20380;-77
2022/07/22 08:49:47;;;;;;;34.03;3.70;;;;;;;;;;5057113;28;20025;-76
2022/07/22 08:52:12;;;;;;;18.75;2.92;;;;;;;;;;5079519;28;20046;-76
2022/07/22 08:54:38;;;;;;;17.73;3.03;;;;;;;;;;5065300;28;20029;-77
2022/07/22 08:57:04;;;;;;;20.02;3.83;;;;;;;;;;5056316;28;20032;-76
2022/07/22 08:59:30;;;;;;;20.30;3.28;;;;;;;;;;5057210;28;20039;-76
2022/07/22 09:02:04;;;;;;;19.10;3.47;;;;;;;;;;5055371;28;20073;-78
2022/07/22 09:04:31;;;;;;;21.53;2.90;;;;;;;;;;5057431;28;20024;-76
2022/07/22 09:06:57;;;;;;;16.85;3.00;;;;;;;;;;5056469;28;20051;-77
2022/07/22 09:09:30;;;;;;;21.35;3.05;;;;;;;;;;5056838;28;20463;-78
2022/07/22 09:12:09;;;;;;;15.80;2.88;;;;;;;;;;5054176;28;20032;-76
2022/07/22 09:14:48;;;;;;;21.08;3.25;;;;;;;;;;5055894;28;20029;-76
2022/07/22 09:17:25;;;;;;;15.52;2.72;;;;;;;;;;5054894;28;20424;-76
2022/07/22 09:19:53;;;;;;;14.40;3.38;;;;;;;;;;5055559;28;20039;-78
2022/07/22 09:22:38;;;;;;;15.43;2.65;;;;;;;;;;5057163;28;20025;-77
2022/07/22 09:25:21;;;;;;;12.90;2.45;;;;;;;;;;5055072;28;20322;-77
2022/07/22 09:27:47;;;;;;;18.15;2.72;;;;;;;;;;5057433;28;20021;-77
2022/07/22 09:30:14;;;;;;;16.13;2.47;;;;;;;;;;5057590;28;20566;-77
2022/07/22 09:32:41;;;;;;;22.15;3.72;;;;;;;;;;5054954;28;20029;-76
2022/07/22 09:35:07;;;;;;;14.68;2.75;;;;;;;;;;5058001;28;20549;-77
2022/07/22 09:37:33;;;;;;;17.52;2.75;;;;;;;;;;5057094;28;20029;-76
2022/07/22 09:40:12;;;;;;;13.27;2.45;;;;;;;;;;5059419;28;20096;-76
2022/07/22 09:42:49;;;;;;;17.42;2.40;;;;;;;;;;5061919;28;20028;-77
2022/07/22 09:45:15;;;;;;;12.40;2.70;;;;;;;;;;5056982;28;20436;-76
2022/07/22 09:47:42;;;;;;;21.20;3.35;;;;;;;;;;5057320;28;20021;-76
2022/07/22 09:50:40;;;;;;;20.45;2.50;;;;;;;;;;5063272;28;20017;-77
2022/07/22 09:53:06;;;;;;;13.18;2.30;;;;;;;;;;5027909;28;20088;-77
2022/07/22 09:55:33;;;;;;;10.20;2.17;;;;;;;;;;5057486;28;20391;-77
2022/07/22 09:57:59;;;;;;;15.75;2.78;;;;;;;;;;5057130;28;20021;-76
2022/07/22 10:00:26;;;;;;;19.35;2.75;;;;;;;;;;5055590;28;20033;-77
2022/07/22 10:02:54;;;;;;;15.43;2.78;;;;;;;;;;5059927;28;20021;-77
2022/07/22 10:05:22;;;;;;;21.15;2.97;;;;;;;;;;5072684;28;20028;-77
2022/07/22 10:07:48;;;;;;;15.98;2.50;;;;;;;;;;5060770;28;20020;-77
2022/07/22 10:10:16;;;;;;;16.35;2.75;;;;;;;;;;5059733;28;20052;-77
2022/07/22 10:12:43;;;;;;;17.77;3.15;;;;;;;;;;5061023;28;20025;-78
2022/07/22 10:15:10;;;;;;;18.95;3.42;;;;;;;;;;5060472;28;20025;-77
2022/07/22 10:17:37;;;;;;;12.60;2.72;;;;;;;;;;5059718;28;20021;-76
2022/07/22 10:20:05;;;;;;;31.42;5.30;;;;;;;;;;5061580;28;20107;-77
2022/07/22 10:22:43;;;;;;;17.25;2.80;;;;;;;;;;5059808;28;20033;-77
2022/07/22 10:25:10;;;;;;;14.15;2.65;;;;;;;;;;5058404;28;20080;-77
2022/07/22 10:27:53;;;;;;;16.83;2.80;;;;;;;;;;5066288;28;20099;-78
2022/07/22 10:30:24;;;;;;;13.90;2.40;;;;;;;;;;5075557;28;20025;-77
2022/07/22 10:33:02;;;;;;;14.88;2.80;;;;;;;;;;5073659;28;20061;-76
2022/07/22 10:35:28;;;;;;;16.40;2.47;;;;;;;;;;5071137;28;20033;-76
2022/07/22 10:37:55;;;;;;;10.10;2.10;;;;;;;;;;5077726;28;20567;-76
2022/07/22 10:40:28;;;;;;;11.50;2.40;;;;;;;;;;5066167;28;20116;-78
2022/07/22 10:43:00;;;;;;;10.65;2.17;;;;;;;;;;5058755;28;20075;-77
2022/07/22 10:45:30;;;;;;;14.13;3.40;;;;;;;;;;5056774;28;20029;-77
2022/07/22 10:48:00;;;;;;;16.23;3.03;;;;;;;;;;5057158;28;20558;-77
2022/07/22 10:50:35;;;;;;;17.08;3.17;;;;;;;;;;5055612;28;20629;-77
2022/07/22 10:53:02;;;;;;;13.52;2.33;;;;;;;;;;5058407;28;20059;-78
2022/07/22 10:55:28;;;;;;;10.82;1.85;;;;;;;;;;5057979;28;20017;-77
2022/07/22 10:57:54;;;;;;;20.38;2.72;;;;;;;;;;5057726;28;20462;-77
2022/07/22 11:00:20;;;;;;;12.35;2.83;;;;;;;;;;5058271;28;20025;-78
2022/07/22 11:02:46;;;;;;;13.18;3.17;;;;;;;;;;5057936;28;20079;-77
2022/07/22 11:05:12;;;;;;;12.48;2.42;;;;;;;;;;5060190;28;20389;-78
2022/07/22 11:07:45;;;;;;;14.55;3.45;;;;;;;;;;5063322;28;20099;-78
2022/07/22 11:10:13;;;;;;;16.67;3.45;;;;;;;;;;5060483;28;20074;-77
2022/07/22 11:12:39;;;;;;;15.23;2.58;;;;;;;;;;5059917;28;20021;-76
2022/07/22 11:15:06;;;;;;;15.10;2.20;;;;;;;;;;5059102;28;20021;-77
2022/07/22 11:17:34;;;;;;;8.27;1.92;;;;;;;;;;5063209;28;20025;-77
2022/07/22 11:22:27;;;;;;;16.33;2.40;;;;;;;;;;5076885;22;20045;-77
2022/07/22 11:24:53;;;;;;;10.82;2.40;;;;;;;;;;5042561;28;20095;-77
2022/07/22 11:27:22;;;;;;;22.15;7.00;;;;;;;;;;5058044;28;20434;-76
2022/07/22 11:29:50;;;;;;;15.75;2.65;;;;;;;;;;5061440;28;20021;-75
2022/07/22 11:32:17;;;;;;;11.55;2.72;;;;;;;;;;5058275;28;20021;-76
2022/07/22 11:34:47;;;;;;;10.50;2.20;;;;;;;;;;5059950;28;20031;-77
2022/07/22 11:37:16;;;;;;;12.93;2.63;;;;;;;;;;5057758;28;20084;-76
2022/07/22 11:39:42;;;;;;;15.05;2.38;;;;;;;;;;5061219;28;20036;-76
2022/07/22 11:42:09;;;;;;;11.55;2.30;;;;;;;;;;5053368;28;20128;-77
2022/07/22 11:44:36;;;;;;;9.07;2.17;;;;;;;;;;5058728;28;20108;-77
2022/07/22 11:47:02;;;;;;;9.55;2.53;;;;;;;;;;5057985;28;20048;-77
2022/07/22 11:49:29;;;;;;;11.02;2.30;;;;;;;;;;5056134;28;20026;-77
2022/07/22 11:51:55;;;;;;;15.35;3.40;;;;;;;;;;5055527;28;20017;-76
2022/07/22 11:54:22;;;;;;;11.68;2.10;;;;;;;;;;5060273;28;20040;-77
2022/07/22 11:56:48;;;;;;;10.02;1.90;;;;;;;;;;5056258;28;20017;-76
2022/07/22 11:59:15;;;;;;;11.88;2.28;;;;;;;;;;5061829;28;20017;-78
2022/07/22 12:01:42;;;;;;;11.63;2.28;;;;;;;;;;5058563;28;20029;-76
2022/07/22 12:04:09;;;;;;;13.35;2.10;;;;;;;;;;5066593;28;20065;-77
2022/07/22 12:06:38;;;;;;;10.60;1.98;;;;;;;;;;5061301;28;20017;-77
2022/07/22 12:09:04;;;;;;;11.55;2.03;;;;;;;;;;5059742;28;20029;-77
2022/07/22 12:11:30;;;;;;;14.00;2.20;;;;;;;;;;5056900;28;20084;-77
2022/07/22 12:13:56;;;;;;;9.10;1.88;;;;;;;;;;5057627;28;20258;-78
2022/07/22 12:16:26;;;;;;;9.50;2.00;;;;;;;;;;5064203;28;20021;-77
2022/07/22 12:19:12;;;;;;;11.70;1.95;;;;;;;;;;5065430;28;20025;-78
2022/07/22 12:21:52;;;;;;;7.20;1.70;;;;;;;;;;5063274;28;20072;-76
2022/07/22 12:24:25;;;;;;;9.00;1.73;;;;;;;;;;5064136;28;20021;-77
2022/07/22 12:26:51;;;;;;;8.95;1.73;;;;;;;;;;5063564;28;20025;-77
2022/07/22 12:29:19;;;;;;;7.82;2.00;;;;;;;;;;5060067;28;20021;-77
2022/07/22 12:31:46;;;;;;;10.25;2.08;;;;;;;;;;5061268;28;20029;-78
2022/07/22 12:34:13;;;;;;;10.60;1.90;;;;;;;;;;5059715;28;20390;-77
2022/07/22 12:36:39;;;;;;;8.35;1.67;;;;;;;;;;5058348;28;20036;-80
2022/07/22 12:39:15;;;;;;;12.50;2.95;;;;;;;;;;5059646;28;20124;-77
2022/07/22 12:41:50;;;;;;;9.10;1.48;;;;;;;;;;5059326;28;20497;-76
2022/07/22 12:44:17;;;;;;;7.28;1.88;;;;;;;;;;5064906;28;20029;-77
2022/07/22 12:46:47;;;;;;;10.68;1.60;;;;;;;;;;5065899;28;20025;-78
2022/07/22 12:49:14;;;;;;;9.52;1.52;;;;;;;;;;5058574;28;20025;-74
2022/07/22 12:51:40;;;;;;;8.38;2.00;;;;;;;;;;5056256;28;20025;-76
2022/07/22 12:54:06;;;;;;;19.88;1.63;;;;;;;;;;5055930;28;20541;-76
2022/07/22 12:56:33;;;;;;;7.32;1.80;;;;;;;;;;5055874;28;20090;-74
2022/07/22 12:58:59;;;;;;;11.10;1.90;;;;;;;;;;5057200;28;20098;-76
2022/07/22 13:01:25;;;;;;;8.98;2.00;;;;;;;;;;5057289;28;20087;-75
2022/07/22 13:03:51;;;;;;;9.63;2.10;;;;;;;;;;5064926;28;20025;-73
2022/07/22 13:06:17;;;;;;;8.57;1.88;;;;;;;;;;5067990;28;20028;-74
2022/07/22 13:08:43;;;;;;;6.28;1.55;;;;;;;;;;5068743;28;20024;-74
2022/07/22 13:11:09;;;;;;;10.63;2.50;;;;;;;;;;5060590;28;20365;-76
2022/07/22 13:13:35;;;;;;;9.75;1.95;;;;;;;;;;5054587;28;20087;-75
2022/07/22 13:16:01;;;;;;;13.23;2.38;;;;;;;;;;5055659;28;20032;-78
2022/07/22 13:18:27;;;;;;;10.38;1.98;;;;;;;;;;5055466;28;20021;-74
2022/07/22 13:20:53;;;;;;;12.57;1.98;;;;;;;;;;5054225;28;20074;-75
2022/07/22 13:23:19;;;;;;;7.88;2.10;;;;;;;;;;5056274;28;20029;-76
2022/07/22 13:25:45;;;;;;;9.85;1.80;;;;;;;;;;5056441;28;20528;-72
2022/07/22 13:28:11;;;;;;;9.88;1.80;;;;;;;;;;5052707;28;20017;-75
2022/07/22 13:30:37;;;;;;;12.80;2.10;;;;;;;;;;5056207;28;20022;-77
2022/07/22 13:33:03;;;;;;;18.00;1.95;;;;;;;;;;5055983;28;20100;-77
2022/07/22 13:35:29;;;;;;;8.02;1.50;;;;;;;;;;5054096;28;20031;-76
2022/07/22 13:37:56;;;;;;;10.35;1.77;;;;;;;;;;5053463;28;20477;-79
2022/07/22 13:40:21;;;;;;;10.02;2.15;;;;;;;;;;5058888;28;20144;-76
2022/07/22 13:42:47;;;;;;;16.90;2.83;;;;;;;;;;5054153;28;20489;-77
2022/07/22 13:45:14;;;;;;;9.15;1.95;;;;;;;;;;5054554;28;20040;-77
2022/07/22 13:47:41;;;;;;;11.98;1.80;;;;;;;;;;5052384;28;20021;-76
2022/07/22 13:50:07;;;;;;;18.88;2.45;;;;;;;;;;5054015;28;20448;-75
2022/07/22 13:52:34;;;;;;;15.95;1.48;;;;;;;;;;5054507;28;20083;-74
2022/07/22 13:55:00;;;;;;;8.18;1.67;;;;;;;;;;5053798;28;20036;-77
2022/07/22 13:57:25;;;;;;;11.45;1.85;;;;;;;;;;5054868;28;20425;-76
2022/07/22 13:59:52;;;;;;;9.15;2.00;;;;;;;;;;5057254;28;20413;-76
2022/07/22 14:02:18;;;;;;;10.48;2.53;;;;;;;;;;5057595;28;20025;-75
2022/07/22 14:04:44;;;;;;;9.52;1.83;;;;;;;;;;5055225;28;20052;-74
2022/07/22 14:07:10;;;;;;;13.23;2.13;;;;;;;;;;5056302;28;20036;-76
2022/07/22 14:09:36;;;;;;;8.38;1.70;;;;;;;;;;5053954;28;20029;-76
2022/07/22 14:12:02;;;;;;;14.70;1.90;;;;;;;;;;5053620;28;20032;-76
2022/07/22 14:14:28;;;;;;;7.97;1.85;;;;;;;;;;5054591;28;20494;-78
2022/07/22 14:16:54;;;;;;;11.07;1.67;;;;;;;;;;5053372;28;20029;-76
2022/07/22 14:19:20;;;;;;;7.57;2.38;;;;;;;;;;5058525;28;20052;-77
2022/07/22 14:21:46;;;;;;;9.93;3.30;;;;;;;;;;5059197;28;20055;-76
2022/07/22 14:24:12;;;;;;;6.72;1.67;;;;;;;;;;5055676;28;20017;-77
2022/07/22 14:26:39;;;;;;;10.68;1.58;;;;;;;;;;5051988;28;20033;-76
2022/07/22 14:29:06;;;;;;;12.02;1.95;;;;;;;;;;5053482;28;20021;-76
2022/07/22 14:31:33;;;;;;;9.00;2.05;;;;;;;;;;5053753;28;20021;-78